sensor_id;sensor_type;location;lat;lon;timestamp;P1;durP1;ratioP1;P2;durP2;ratioP2
72117;SDS011;59992;47.490;8.736;2023-04-08T02:00:44;2.10;;;1.10;;
72117;SDS011;59992;47.490;8.736;2023-04-08T02:03:36;2.10;;;1.50;;
72117;SDS011;59992;47.490;8.736;2023-04-08T02:06:30;2.50;;;1.70;;
72117;SDS011;59992;47.490;8.736;2023-04-08T02:09:20;3.00;;;1.40;;
72117;SDS011;59992;47.490;8.736;2023-04-08T02:12:12;3.50;;;1.90;;
72117;SDS011;59992;47.490;8.736;2023-04-08T02:15:03;3.70;;;1.60;;
72117;SDS011;59992;47.490;8.736;2023-04-08T02:17:55;3.30;;;1.60;;
72117;SDS011;59992;47.490;8.736;2023-04-08T02:20:56;2.50;;;1.40;;
72117;SDS011;59992;47.490;8.736;2023-04-08T02:23:51;2.90;;;2.10;;
72117;SDS011;59992;47.490;8.736;2023-04-08T02:26:44;3.30;;;2.00;;
72117;SDS011;59992;47.490;8.736;2023-04-08T02:29:36;6.00;;;2.30;;
72117;SDS011;59992;47.490;8.736;2023-04-08T02:32:29;3.00;;;2.00;;
72117;SDS011;59992;47.490;8.736;2023-04-08T02:35:21;4.20;;;2.60;;
72117;SDS011;59992;47.490;8.736;2023-04-08T02:38:12;5.20;;;2.50;;
72117;SDS011;59992;47.490;8.736;2023-04-08T02:41:03;3.90;;;2.30;;
72117;SDS011;59992;47.490;8.736;2023-04-08T02:43:53;3.90;;;2.50;;
72117;SDS011;59992;47.490;8.736;2023-04-08T02:46:43;3.50;;;2.50;;
72117;SDS011;59992;47.490;8.736;2023-04-08T02:49:33;3.10;;;1.90;;
72117;SDS011;59992;47.490;8.736;2023-04-08T02:52:24;4.70;;;2.30;;
72117;SDS011;59992;47.490;8.736;2023-04-08T02:55:14;4.10;;;2.00;;
72117;SDS011;59992;47.490;8.736;2023-04-08T02:58:04;2.60;;;1.80;;
72117;SDS011;59992;47.490;8.736;2023-04-08T03:00:54;2.70;;;1.70;;
72117;SDS011;59992;47.490;8.736;2023-04-08T03:03:45;2.90;;;1.50;;
72117;SDS011;59992;47.490;8.736;2023-04-08T03:06:35;3.00;;;2.00;;
72117;SDS011;59992;47.490;8.736;2023-04-08T03:09:26;3.20;;;1.90;;
72117;SDS011;59992;47.490;8.736;2023-04-08T03:12:23;2.60;;;1.80;;
72117;SDS011;59992;47.490;8.736;2023-04-08T03:15:18;3.70;;;2.10;;
72117;SDS011;59992;47.490;8.736;2023-04-08T03:18:08;3.90;;;2.00;;
72117;SDS011;59992;47.490;8.736;2023-04-08T03:20:58;3.20;;;2.10;;
72117;SDS011;59992;47.490;8.736;2023-04-08T03:23:49;3.30;;;2.30;;
72117;SDS011;59992;47.490;8.736;2023-04-08T03:26:39;2.80;;;1.90;;
72117;SDS011;59992;47.490;8.736;2023-04-08T03:29:29;2.40;;;1.70;;
72117;SDS011;59992;47.490;8.736;2023-04-08T03:32:20;3.00;;;1.60;;
72117;SDS011;59992;47.490;8.736;2023-04-08T03:35:10;3.00;;;1.80;;
72117;SDS011;59992;47.490;8.736;2023-04-08T03:38:00;2.90;;;2.10;;
72117;SDS011;59992;47.490;8.736;2023-04-08T03:40:51;3.60;;;2.10;;
72117;SDS011;59992;47.490;8.736;2023-04-08T03:43:41;3.40;;;2.00;;
72117;SDS011;59992;47.490;8.736;2023-04-08T03:46:32;2.90;;;1.80;;
72117;SDS011;59992;47.490;8.736;2023-04-08T03:49:22;2.90;;;1.90;;
72117;SDS011;59992;47.490;8.736;2023-04-08T03:52:12;2.60;;;1.50;;
72117;SDS011;59992;47.490;8.736;2023-04-08T03:55:02;3.00;;;1.70;;
72117;SDS011;59992;47.490;8.736;2023-04-08T03:57:54;3.40;;;2.30;;
72117;SDS011;59992;47.490;8.736;2023-04-08T04:00:44;3.60;;;2.60;;
72117;SDS011;59992;47.490;8.736;2023-04-08T04:03:34;4.80;;;3.20;;
72117;SDS011;59992;47.490;8.736;2023-04-08T04:06:24;4.90;;;3.40;;
72117;SDS011;59992;47.490;8.736;2023-04-08T04:09:15;5.60;;;3.60;;
72117;SDS011;59992;47.490;8.736;2023-04-08T04:12:05;5.30;;;3.40;;
72117;SDS011;59992;47.490;8.736;2023-04-08T04:14:56;6.40;;;3.70;;
72117;SDS011;59992;47.490;8.736;2023-04-08T04:17:47;6.40;;;4.20;;
72117;SDS011;59992;47.490;8.736;2023-04-08T04:20:39;7.00;;;4.40;;
72117;SDS011;59992;47.490;8.736;2023-04-08T04:23:30;6.30;;;4.00;;
72117;SDS011;59992;47.490;8.736;2023-04-08T04:26:21;4.80;;;3.40;;
72117;SDS011;59992;47.490;8.736;2023-04-08T04:29:11;6.20;;;3.80;;
72117;SDS011;59992;47.490;8.736;2023-04-08T04:32:01;5.80;;;3.80;;
72117;SDS011;59992;47.490;8.736;2023-04-08T04:34:53;6.60;;;3.50;;
72117;SDS011;59992;47.490;8.736;2023-04-08T04:37:43;5.70;;;3.70;;
72117;SDS011;59992;47.490;8.736;2023-04-08T04:40:33;6.30;;;3.70;;
72117;SDS011;59992;47.490;8.736;2023-04-08T04:43:24;5.20;;;3.20;;
72117;SDS011;59992;47.490;8.736;2023-04-08T04:46:15;6.10;;;3.90;;
72117;SDS011;59992;47.490;8.736;2023-04-08T04:49:05;5.00;;;3.40;;
72117;SDS011;59992;47.490;8.736;2023-04-08T04:51:56;6.20;;;3.70;;
72117;SDS011;59992;47.490;8.736;2023-04-08T04:54:46;5.40;;;3.50;;
72117;SDS011;59992;47.490;8.736;2023-04-08T04:57:36;5.00;;;3.30;;
72117;SDS011;59992;47.490;8.736;2023-04-08T05:00:27;4.40;;;3.00;;
72117;SDS011;59992;47.490;8.736;2023-04-08T05:03:18;4.30;;;2.70;;
72117;SDS011;59992;47.490;8.736;2023-04-08T05:06:08;3.40;;;2.30;;
72117;SDS011;59992;47.490;8.736;2023-04-08T05:08:58;4.50;;;3.00;;
72117;SDS011;59992;47.490;8.736;2023-04-08T05:11:49;5.00;;;2.70;;
72117;SDS011;59992;47.490;8.736;2023-04-08T05:14:39;4.70;;;2.60;;
72117;SDS011;59992;47.490;8.736;2023-04-08T05:17:29;4.40;;;2.80;;
72117;SDS011;59992;47.490;8.736;2023-04-08T05:20:20;6.10;;;2.70;;
72117;SDS011;59992;47.490;8.736;2023-04-08T05:23:11;5.30;;;3.20;;
72117;SDS011;59992;47.490;8.736;2023-04-08T05:26:01;5.00;;;3.20;;
72117;SDS011;59992;47.490;8.736;2023-04-08T05:28:54;6.30;;;3.50;;
72117;SDS011;59992;47.490;8.736;2023-04-08T05:31:45;5.30;;;3.30;;
72117;SDS011;59992;47.490;8.736;2023-04-08T05:34:35;4.80;;;3.00;;
72117;SDS011;59992;47.490;8.736;2023-04-08T05:37:25;3.90;;;2.50;;
72117;SDS011;59992;47.490;8.736;2023-04-08T05:40:15;5.90;;;3.50;;
72117;SDS011;59992;47.490;8.736;2023-04-08T05:43:06;7.60;;;3.80;;
72117;SDS011;59992;47.490;8.736;2023-04-08T05:45:56;6.10;;;4.00;;
72117;SDS011;59992;47.490;8.736;2023-04-08T05:48:47;6.20;;;3.40;;
72117;SDS011;59992;47.490;8.736;2023-04-08T05:51:37;4.10;;;2.60;;
72117;SDS011;59992;47.490;8.736;2023-04-08T05:54:28;4.50;;;2.60;;
72117;SDS011;59992;47.490;8.736;2023-04-08T05:57:18;3.70;;;2.70;;
72117;SDS011;59992;47.490;8.736;2023-04-08T06:00:09;5.20;;;3.30;;
72117;SDS011;59992;47.490;8.736;2023-04-08T06:03:00;4.30;;;2.80;;
72117;SDS011;59992;47.490;8.736;2023-04-08T06:05:50;4.00;;;2.70;;
72117;SDS011;59992;47.490;8.736;2023-04-08T06:08:40;5.60;;;3.60;;
72117;SDS011;59992;47.490;8.736;2023-04-08T06:11:31;6.40;;;3.50;;
72117;SDS011;59992;47.490;8.736;2023-04-08T06:14:21;5.60;;;3.40;;
72117;SDS011;59992;47.490;8.736;2023-04-08T06:17:12;6.90;;;4.10;;
72117;SDS011;59992;47.490;8.736;2023-04-08T06:20:02;10.60;;;6.30;;
72117;SDS011;59992;47.490;8.736;2023-04-08T06:22:55;9.60;;;5.50;;
72117;SDS011;59992;47.490;8.736;2023-04-08T06:25:45;9.10;;;5.70;;
72117;SDS011;59992;47.490;8.736;2023-04-08T06:28:36;8.80;;;5.80;;
72117;SDS011;59992;47.490;8.736;2023-04-08T06:31:26;10.00;;;6.00;;
72117;SDS011;59992;47.490;8.736;2023-04-08T06:34:16;10.00;;;5.80;;
72117;SDS011;59992;47.490;8.736;2023-04-08T06:37:06;9.60;;;5.70;;
72117;SDS011;59992;47.490;8.736;2023-04-08T06:39:57;7.70;;;5.00;;
72117;SDS011;59992;47.490;8.736;2023-04-08T06:42:47;8.90;;;5.70;;
72117;SDS011;59992;47.490;8.736;2023-04-08T06:45:37;8.30;;;5.30;;
72117;SDS011;59992;47.490;8.736;2023-04-08T06:48:29;8.70;;;5.50;;
72117;SDS011;59992;47.490;8.736;2023-04-08T06:51:19;10.00;;;5.90;;
72117;SDS011;59992;47.490;8.736;2023-04-08T06:54:09;10.60;;;5.70;;
72117;SDS011;59992;47.490;8.736;2023-04-08T06:57:00;9.00;;;5.10;;
72117;SDS011;59992;47.490;8.736;2023-04-08T06:59:50;7.80;;;4.80;;
72117;SDS011;59992;47.490;8.736;2023-04-08T07:02:41;7.80;;;5.20;;
72117;SDS011;59992;47.490;8.736;2023-04-08T07:05:31;8.50;;;5.30;;
72117;SDS011;59992;47.490;8.736;2023-04-08T07:08:23;7.30;;;5.00;;
72117;SDS011;59992;47.490;8.736;2023-04-08T07:11:13;8.80;;;5.40;;
72117;SDS011;59992;47.490;8.736;2023-04-08T07:14:04;9.00;;;5.60;;
72117;SDS011;59992;47.490;8.736;2023-04-08T07:16:54;8.00;;;5.20;;
72117;SDS011;59992;47.490;8.736;2023-04-08T07:19:45;7.80;;;5.70;;
72117;SDS011;59992;47.490;8.736;2023-04-08T07:22:36;7.50;;;4.90;;
72117;SDS011;59992;47.490;8.736;2023-04-08T07:25:26;7.50;;;4.90;;
72117;SDS011;59992;47.490;8.736;2023-04-08T07:28:16;7.00;;;4.40;;
72117;SDS011;59992;47.490;8.736;2023-04-08T07:31:13;8.20;;;5.20;;
72117;SDS011;59992;47.490;8.736;2023-04-08T07:34:04;7.70;;;5.00;;
72117;SDS011;59992;47.490;8.736;2023-04-08T07:36:54;7.50;;;5.10;;
72117;SDS011;59992;47.490;8.736;2023-04-08T07:39:45;6.70;;;4.70;;
72117;SDS011;59992;47.490;8.736;2023-04-08T07:42:35;7.10;;;4.40;;
72117;SDS011;59992;47.490;8.736;2023-04-08T07:45:25;7.50;;;5.00;;
72117;SDS011;59992;47.490;8.736;2023-04-08T07:48:16;7.50;;;4.90;;
72117;SDS011;59992;47.490;8.736;2023-04-08T07:51:07;9.20;;;6.70;;
72117;SDS011;59992;47.490;8.736;2023-04-08T07:53:58;10.40;;;6.10;;
72117;SDS011;59992;47.490;8.736;2023-04-08T07:56:48;10.40;;;5.90;;
72117;SDS011;59992;47.490;8.736;2023-04-08T07:59:39;9.80;;;6.20;;
72117;SDS011;59992;47.490;8.736;2023-04-08T08:02:29;7.90;;;5.40;;
72117;SDS011;59992;47.490;8.736;2023-04-08T08:05:21;7.60;;;5.30;;
72117;SDS011;59992;47.490;8.736;2023-04-08T08:08:11;8.20;;;5.50;;
72117;SDS011;59992;47.490;8.736;2023-04-08T08:11:01;8.00;;;5.10;;
72117;SDS011;59992;47.490;8.736;2023-04-08T08:13:52;8.30;;;5.10;;
72117;SDS011;59992;47.490;8.736;2023-04-08T08:16:42;6.70;;;4.60;;
72117;SDS011;59992;47.490;8.736;2023-04-08T08:19:32;7.50;;;5.60;;
72117;SDS011;59992;47.490;8.736;2023-04-08T08:22:22;8.30;;;5.60;;
72117;SDS011;59992;47.490;8.736;2023-04-08T08:25:13;7.90;;;5.10;;
72117;SDS011;59992;47.490;8.736;2023-04-08T08:28:04;8.50;;;5.40;;
72117;SDS011;59992;47.490;8.736;2023-04-08T08:30:54;9.10;;;5.90;;
72117;SDS011;59992;47.490;8.736;2023-04-08T08:33:45;8.90;;;6.00;;
72117;SDS011;59992;47.490;8.736;2023-04-08T08:36:35;9.30;;;5.90;;
72117;SDS011;59992;47.490;8.736;2023-04-08T08:39:25;8.30;;;5.60;;
72117;SDS011;59992;47.490;8.736;2023-04-08T08:42:19;8.60;;;5.90;;
72117;SDS011;59992;47.490;8.736;2023-04-08T08:45:09;6.70;;;4.80;;
72117;SDS011;59992;47.490;8.736;2023-04-08T08:48:01;8.40;;;5.80;;
72117;SDS011;59992;47.490;8.736;2023-04-08T08:50:52;8.20;;;5.50;;
72117;SDS011;59992;47.490;8.736;2023-04-08T08:53:42;8.30;;;5.90;;
72117;SDS011;59992;47.490;8.736;2023-04-08T08:56:33;8.00;;;5.80;;
72117;SDS011;59992;47.490;8.736;2023-04-08T08:59:24;9.70;;;6.00;;
72117;SDS011;59992;47.490;8.736;2023-04-08T09:02:24;8.00;;;5.70;;
72117;SDS011;59992;47.490;8.736;2023-04-08T09:05:17;7.70;;;5.40;;
72117;SDS011;59992;47.490;8.736;2023-04-08T09:08:08;8.40;;;5.30;;
72117;SDS011;59992;47.490;8.736;2023-04-08T09:11:13;6.40;;;4.90;;
72117;SDS011;59992;47.490;8.736;2023-04-08T09:14:05;7.40;;;5.40;;
72117;SDS011;59992;47.490;8.736;2023-04-08T09:17:06;6.80;;;5.00;;
72117;SDS011;59992;47.490;8.736;2023-04-08T09:20:07;8.00;;;5.60;;
72117;SDS011;59992;47.490;8.736;2023-04-08T09:22:59;7.40;;;5.10;;
72117;SDS011;59992;47.490;8.736;2023-04-08T09:25:50;8.10;;;5.50;;
72117;SDS011;59992;47.490;8.736;2023-04-08T09:28:57;7.80;;;5.70;;
72117;SDS011;59992;47.490;8.736;2023-04-08T09:31:51;7.40;;;5.50;;
72117;SDS011;59992;47.490;8.736;2023-04-08T09:34:43;6.60;;;5.00;;
72117;SDS011;59992;47.490;8.736;2023-04-08T09:37:33;9.20;;;6.20;;
72117;SDS011;59992;47.490;8.736;2023-04-08T09:40:24;8.60;;;5.90;;
72117;SDS011;59992;47.490;8.736;2023-04-08T09:43:17;9.70;;;6.80;;
72117;SDS011;59992;47.490;8.736;2023-04-08T09:46:11;8.90;;;6.00;;
72117;SDS011;59992;47.490;8.736;2023-04-08T09:49:04;8.20;;;5.30;;
72117;SDS011;59992;47.490;8.736;2023-04-08T09:52:01;7.40;;;5.10;;
72117;SDS011;59992;47.490;8.736;2023-04-08T09:54:58;8.40;;;5.70;;
72117;SDS011;59992;47.490;8.736;2023-04-08T09:57:51;7.20;;;5.40;;
72117;SDS011;59992;47.490;8.736;2023-04-08T10:00:47;8.80;;;6.30;;
72117;SDS011;59992;47.490;8.736;2023-04-08T10:03:44;8.30;;;5.50;;
72117;SDS011;59992;47.490;8.736;2023-04-08T10:06:40;8.30;;;5.10;;
72117;SDS011;59992;47.490;8.736;2023-04-08T10:09:31;8.40;;;4.80;;
72117;SDS011;59992;47.490;8.736;2023-04-08T10:12:24;7.30;;;4.90;;
72117;SDS011;59992;47.490;8.736;2023-04-08T10:15:25;5.10;;;3.90;;
72117;SDS011;59992;47.490;8.736;2023-04-08T10:18:32;6.80;;;4.00;;
72117;SDS011;59992;47.490;8.736;2023-04-08T10:21:35;6.80;;;4.80;;
72117;SDS011;59992;47.490;8.736;2023-04-08T10:24:29;6.40;;;4.80;;
72117;SDS011;59992;47.490;8.736;2023-04-08T10:27:25;6.40;;;4.80;;
72117;SDS011;59992;47.490;8.736;2023-04-08T10:30:41;6.90;;;4.80;;
72117;SDS011;59992;47.490;8.736;2023-04-08T10:33:33;7.00;;;5.20;;
72117;SDS011;59992;47.490;8.736;2023-04-08T10:36:23;6.40;;;4.80;;
72117;SDS011;59992;47.490;8.736;2023-04-08T10:39:14;6.90;;;5.10;;
72117;SDS011;59992;47.490;8.736;2023-04-08T10:42:05;7.80;;;5.40;;
72117;SDS011;59992;47.490;8.736;2023-04-08T10:45:00;7.50;;;5.20;;
72117;SDS011;59992;47.490;8.736;2023-04-08T10:47:50;8.30;;;5.90;;
72117;SDS011;59992;47.490;8.736;2023-04-08T10:50:41;8.00;;;5.40;;
72117;SDS011;59992;47.490;8.736;2023-04-08T10:53:33;8.00;;;5.10;;
72117;SDS011;59992;47.490;8.736;2023-04-08T10:56:25;8.00;;;5.40;;
72117;SDS011;59992;47.490;8.736;2023-04-08T10:59:16;6.90;;;4.90;;
72117;SDS011;59992;47.490;8.736;2023-04-08T11:02:15;6.90;;;4.90;;
72117;SDS011;59992;47.490;8.736;2023-04-08T11:05:08;7.60;;;5.20;;
72117;SDS011;59992;47.490;8.736;2023-04-08T11:07:59;8.10;;;4.90;;
72117;SDS011;59992;47.490;8.736;2023-04-08T11:10:50;7.20;;;5.00;;
72117;SDS011;59992;47.490;8.736;2023-04-08T11:13:41;7.20;;;4.90;;
72117;SDS011;59992;47.490;8.736;2023-04-08T11:16:35;7.90;;;4.90;;
72117;SDS011;59992;47.490;8.736;2023-04-08T11:19:28;6.90;;;4.60;;
72117;SDS011;59992;47.490;8.736;2023-04-08T11:22:19;6.70;;;4.10;;
72117;SDS011;59992;47.490;8.736;2023-04-08T11:25:11;6.90;;;4.20;;
72117;SDS011;59992;47.490;8.736;2023-04-08T11:28:02;7.70;;;4.90;;
72117;SDS011;59992;47.490;8.736;2023-04-08T11:30:54;7.00;;;4.60;;
72117;SDS011;59992;47.490;8.736;2023-04-08T11:33:46;6.60;;;4.70;;
72117;SDS011;59992;47.490;8.736;2023-04-08T11:36:38;6.60;;;4.50;;
72117;SDS011;59992;47.490;8.736;2023-04-08T11:39:33;7.30;;;4.80;;
72117;SDS011;59992;47.490;8.736;2023-04-08T11:42:29;6.70;;;4.50;;
72117;SDS011;59992;47.490;8.736;2023-04-08T11:45:20;6.70;;;4.10;;
72117;SDS011;59992;47.490;8.736;2023-04-08T11:48:11;7.60;;;4.30;;
72117;SDS011;59992;47.490;8.736;2023-04-08T11:51:03;5.50;;;3.90;;
72117;SDS011;59992;47.490;8.736;2023-04-08T11:53:56;5.80;;;4.00;;
72117;SDS011;59992;47.490;8.736;2023-04-08T11:56:46;6.40;;;4.30;;
72117;SDS011;59992;47.490;8.736;2023-04-08T11:59:38;7.60;;;4.10;;
72117;SDS011;59992;47.490;8.736;2023-04-08T12:02:28;5.90;;;3.50;;
72117;SDS011;59992;47.490;8.736;2023-04-08T12:05:19;5.40;;;3.60;;
72117;SDS011;59992;47.490;8.736;2023-04-08T12:08:09;6.00;;;4.20;;
72117;SDS011;59992;47.490;8.736;2023-04-08T12:10:59;6.30;;;4.10;;
72117;SDS011;59992;47.490;8.736;2023-04-08T12:13:50;6.00;;;3.30;;
72117;SDS011;59992;47.490;8.736;2023-04-08T12:16:40;4.70;;;3.40;;
72117;SDS011;59992;47.490;8.736;2023-04-08T12:19:31;6.50;;;4.10;;
72117;SDS011;59992;47.490;8.736;2023-04-08T12:22:21;6.10;;;3.70;;
72117;SDS011;59992;47.490;8.736;2023-04-08T12:25:12;7.30;;;4.70;;
72117;SDS011;59992;47.490;8.736;2023-04-08T12:28:02;6.40;;;4.50;;
72117;SDS011;59992;47.490;8.736;2023-04-08T12:30:53;5.60;;;3.90;;
72117;SDS011;59992;47.490;8.736;2023-04-08T12:33:43;5.00;;;3.30;;
72117;SDS011;59992;47.490;8.736;2023-04-08T12:36:33;6.30;;;4.00;;
72117;SDS011;59992;47.490;8.736;2023-04-08T12:39:24;6.70;;;3.80;;
72117;SDS011;59992;47.490;8.736;2023-04-08T12:42:14;5.90;;;3.90;;
72117;SDS011;59992;47.490;8.736;2023-04-08T12:45:06;6.40;;;4.00;;
72117;SDS011;59992;47.490;8.736;2023-04-08T12:47:57;5.60;;;3.30;;
72117;SDS011;59992;47.490;8.736;2023-04-08T12:50:47;7.00;;;4.20;;
72117;SDS011;59992;47.490;8.736;2023-04-08T12:53:38;6.70;;;3.70;;
72117;SDS011;59992;47.490;8.736;2023-04-08T12:56:28;7.60;;;4.30;;
72117;SDS011;59992;47.490;8.736;2023-04-08T12:59:19;8.00;;;4.40;;
72117;SDS011;59992;47.490;8.736;2023-04-08T13:02:09;6.40;;;4.00;;
72117;SDS011;59992;47.490;8.736;2023-04-08T13:04:59;6.70;;;3.90;;
72117;SDS011;59992;47.490;8.736;2023-04-08T13:07:49;6.80;;;3.90;;
72117;SDS011;59992;47.490;8.736;2023-04-08T13:10:42;8.20;;;4.50;;
72117;SDS011;59992;47.490;8.736;2023-04-08T13:13:48;7.70;;;3.90;;
72117;SDS011;59992;47.490;8.736;2023-04-08T13:16:58;6.60;;;4.10;;
72117;SDS011;59992;47.490;8.736;2023-04-08T13:19:48;6.40;;;4.20;;
72117;SDS011;59992;47.490;8.736;2023-04-08T13:22:40;5.60;;;3.60;;
72117;SDS011;59992;47.490;8.736;2023-04-08T13:25:30;6.90;;;3.50;;
72117;SDS011;59992;47.490;8.736;2023-04-08T13:28:21;4.30;;;2.80;;
72117;SDS011;59992;47.490;8.736;2023-04-08T13:31:11;4.60;;;2.70;;
72117;SDS011;59992;47.490;8.736;2023-04-08T13:34:01;4.80;;;3.50;;
72117;SDS011;59992;47.490;8.736;2023-04-08T13:36:52;5.60;;;3.40;;
72117;SDS011;59992;47.490;8.736;2023-04-08T13:39:43;4.50;;;3.20;;
72117;SDS011;59992;47.490;8.736;2023-04-08T13:42:33;5.00;;;3.10;;
72117;SDS011;59992;47.490;8.736;2023-04-08T13:45:23;5.00;;;3.20;;
72117;SDS011;59992;47.490;8.736;2023-04-08T13:48:14;5.10;;;2.70;;
72117;SDS011;59992;47.490;8.736;2023-04-08T13:51:05;4.00;;;2.70;;
72117;SDS011;59992;47.490;8.736;2023-04-08T13:53:55;3.80;;;2.30;;
72117;SDS011;59992;47.490;8.736;2023-04-08T13:56:46;3.80;;;2.40;;
72117;SDS011;59992;47.490;8.736;2023-04-08T13:59:37;4.50;;;2.20;;
72117;SDS011;59992;47.490;8.736;2023-04-08T14:02:27;3.40;;;2.20;;
72117;SDS011;59992;47.490;8.736;2023-04-08T14:05:18;4.70;;;2.70;;
72117;SDS011;59992;47.490;8.736;2023-04-08T14:08:08;3.50;;;2.20;;
72117;SDS011;59992;47.490;8.736;2023-04-08T14:11:00;4.40;;;1.70;;
72117;SDS011;59992;47.490;8.736;2023-04-08T14:13:50;3.30;;;1.80;;
72117;SDS011;59992;47.490;8.736;2023-04-08T14:16:41;3.70;;;2.20;;
72117;SDS011;59992;47.490;8.736;2023-04-08T14:19:32;3.80;;;2.30;;
72117;SDS011;59992;47.490;8.736;2023-04-08T14:22:22;4.40;;;2.00;;
72117;SDS011;59992;47.490;8.736;2023-04-08T14:25:13;2.40;;;1.60;;
72117;SDS011;59992;47.490;8.736;2023-04-08T14:28:03;4.50;;;2.00;;
72117;SDS011;59992;47.490;8.736;2023-04-08T14:30:54;3.50;;;2.10;;
72117;SDS011;59992;47.490;8.736;2023-04-08T14:33:44;3.00;;;1.80;;
72117;SDS011;59992;47.490;8.736;2023-04-08T14:36:34;2.90;;;2.10;;
72117;SDS011;59992;47.490;8.736;2023-04-08T14:39:25;3.10;;;2.00;;
72117;SDS011;59992;47.490;8.736;2023-04-08T14:42:15;3.50;;;2.20;;
72117;SDS011;59992;47.490;8.736;2023-04-08T14:45:06;5.00;;;2.60;;
72117;SDS011;59992;47.490;8.736;2023-04-08T14:47:58;4.90;;;2.80;;
72117;SDS011;59992;47.490;8.736;2023-04-08T14:50:48;4.80;;;2.80;;
72117;SDS011;59992;47.490;8.736;2023-04-08T14:53:39;3.70;;;2.50;;
72117;SDS011;59992;47.490;8.736;2023-04-08T14:56:29;4.50;;;2.70;;
72117;SDS011;59992;47.490;8.736;2023-04-08T14:59:20;4.70;;;3.00;;
72117;SDS011;59992;47.490;8.736;2023-04-08T15:02:10;4.40;;;2.90;;
72117;SDS011;59992;47.490;8.736;2023-04-08T15:05:01;6.20;;;3.30;;
72117;SDS011;59992;47.490;8.736;2023-04-08T15:07:52;4.50;;;3.00;;
72117;SDS011;59992;47.490;8.736;2023-04-08T15:10:42;4.80;;;3.30;;
72117;SDS011;59992;47.490;8.736;2023-04-08T15:13:33;5.20;;;3.40;;
72117;SDS011;59992;47.490;8.736;2023-04-08T15:16:23;6.20;;;4.10;;
72117;SDS011;59992;47.490;8.736;2023-04-08T15:19:14;7.20;;;4.60;;
72117;SDS011;59992;47.490;8.736;2023-04-08T15:22:06;7.30;;;4.40;;
72117;SDS011;59992;47.490;8.736;2023-04-08T15:24:56;6.30;;;4.10;;
72117;SDS011;59992;47.490;8.736;2023-04-08T15:27:47;6.40;;;4.20;;
72117;SDS011;59992;47.490;8.736;2023-04-08T15:30:37;5.90;;;3.90;;
72117;SDS011;59992;47.490;8.736;2023-04-08T15:33:28;6.80;;;4.10;;
72117;SDS011;59992;47.490;8.736;2023-04-08T15:36:18;5.60;;;3.90;;
72117;SDS011;59992;47.490;8.736;2023-04-08T15:39:08;6.00;;;3.80;;
72117;SDS011;59992;47.490;8.736;2023-04-08T15:41:59;5.20;;;3.10;;
72117;SDS011;59992;47.490;8.736;2023-04-08T15:44:49;7.50;;;3.60;;
72117;SDS011;59992;47.490;8.736;2023-04-08T15:47:40;7.30;;;3.80;;
72117;SDS011;59992;47.490;8.736;2023-04-08T15:50:30;4.70;;;2.90;;
72117;SDS011;59992;47.490;8.736;2023-04-08T15:53:20;5.30;;;3.40;;
72117;SDS011;59992;47.490;8.736;2023-04-08T15:56:12;4.70;;;2.90;;
72117;SDS011;59992;47.490;8.736;2023-04-08T15:59:04;6.60;;;3.80;;
72117;SDS011;59992;47.490;8.736;2023-04-08T16:01:54;5.80;;;3.50;;
72117;SDS011;59992;47.490;8.736;2023-04-08T16:04:45;7.10;;;3.00;;
72117;SDS011;59992;47.490;8.736;2023-04-08T16:07:35;6.00;;;3.20;;
72117;SDS011;59992;47.490;8.736;2023-04-08T16:10:25;5.80;;;3.60;;
72117;SDS011;59992;47.490;8.736;2023-04-08T16:13:16;7.40;;;4.10;;
72117;SDS011;59992;47.490;8.736;2023-04-08T16:16:06;7.00;;;4.20;;
72117;SDS011;59992;47.490;8.736;2023-04-08T16:18:58;6.90;;;4.10;;
72117;SDS011;59992;47.490;8.736;2023-04-08T16:21:48;6.40;;;3.90;;
72117;SDS011;59992;47.490;8.736;2023-04-08T16:24:39;6.40;;;4.00;;
72117;SDS011;59992;47.490;8.736;2023-04-08T16:27:30;6.20;;;4.20;;
72117;SDS011;59992;47.490;8.736;2023-04-08T16:30:20;6.70;;;4.40;;
72117;SDS011;59992;47.490;8.736;2023-04-08T16:33:11;5.90;;;3.90;;
72117;SDS011;59992;47.490;8.736;2023-04-08T16:36:01;6.20;;;4.00;;
72117;SDS011;59992;47.490;8.736;2023-04-08T16:38:51;4.80;;;3.00;;
72117;SDS011;59992;47.490;8.736;2023-04-08T16:41:42;5.40;;;3.60;;
72117;SDS011;59992;47.490;8.736;2023-04-08T16:44:32;6.30;;;3.80;;
72117;SDS011;59992;47.490;8.736;2023-04-08T16:47:22;5.70;;;3.60;;
72117;SDS011;59992;47.490;8.736;2023-04-08T16:50:13;6.80;;;4.00;;
72117;SDS011;59992;47.490;8.736;2023-04-08T16:53:03;6.10;;;3.80;;
72117;SDS011;59992;47.490;8.736;2023-04-08T16:55:53;8.10;;;4.60;;
72117;SDS011;59992;47.490;8.736;2023-04-08T16:58:44;7.30;;;4.50;;
72117;SDS011;59992;47.490;8.736;2023-04-08T17:01:34;6.80;;;3.90;;
72117;SDS011;59992;47.490;8.736;2023-04-08T17:04:24;6.10;;;4.00;;
72117;SDS011;59992;47.490;8.736;2023-04-08T17:07:15;4.70;;;3.00;;
72117;SDS011;59992;47.490;8.736;2023-04-08T17:10:07;6.10;;;3.90;;
72117;SDS011;59992;47.490;8.736;2023-04-08T17:12:58;6.40;;;3.70;;
72117;SDS011;59992;47.490;8.736;2023-04-08T17:15:51;6.40;;;3.80;;
72117;SDS011;59992;47.490;8.736;2023-04-08T17:18:41;7.80;;;4.20;;
72117;SDS011;59992;47.490;8.736;2023-04-08T17:21:32;6.70;;;3.80;;
72117;SDS011;59992;47.490;8.736;2023-04-08T17:24:23;6.80;;;4.40;;
72117;SDS011;59992;47.490;8.736;2023-04-08T17:27:13;7.50;;;4.30;;
72117;SDS011;59992;47.490;8.736;2023-04-08T17:30:04;8.00;;;4.70;;
72117;SDS011;59992;47.490;8.736;2023-04-08T17:32:56;8.00;;;4.50;;
72117;SDS011;59992;47.490;8.736;2023-04-08T17:35:46;6.00;;;3.90;;
72117;SDS011;59992;47.490;8.736;2023-04-08T17:38:37;7.20;;;4.40;;
72117;SDS011;59992;47.490;8.736;2023-04-08T17:41:28;9.10;;;5.00;;
72117;SDS011;59992;47.490;8.736;2023-04-08T17:44:18;7.10;;;4.40;;
72117;SDS011;59992;47.490;8.736;2023-04-08T17:47:09;8.40;;;4.70;;
72117;SDS011;59992;47.490;8.736;2023-04-08T17:49:59;9.80;;;5.60;;
72117;SDS011;59992;47.490;8.736;2023-04-08T17:52:49;7.60;;;5.10;;
72117;SDS011;59992;47.490;8.736;2023-04-08T17:55:40;9.60;;;5.90;;
72117;SDS011;59992;47.490;8.736;2023-04-08T17:58:30;9.00;;;5.80;;
72117;SDS011;59992;47.490;8.736;2023-04-08T18:01:20;8.90;;;5.70;;
72117;SDS011;59992;47.490;8.736;2023-04-08T18:04:11;9.20;;;5.60;;
72117;SDS011;59992;47.490;8.736;2023-04-08T18:07:02;8.90;;;5.40;;
72117;SDS011;59992;47.490;8.736;2023-04-08T18:09:52;8.10;;;4.80;;
72117;SDS011;59992;47.490;8.736;2023-04-08T18:12:43;7.80;;;4.60;;
72117;SDS011;59992;47.490;8.736;2023-04-08T18:15:34;8.70;;;4.50;;
72117;SDS011;59992;47.490;8.736;2023-04-08T18:18:24;8.90;;;4.80;;
72117;SDS011;59992;47.490;8.736;2023-04-08T18:21:15;7.80;;;4.80;;
72117;SDS011;59992;47.490;8.736;2023-04-08T18:24:05;7.00;;;4.30;;
72117;SDS011;59992;47.490;8.736;2023-04-08T18:26:56;6.80;;;4.00;;
72117;SDS011;59992;47.490;8.736;2023-04-08T18:29:45;9.30;;;5.10;;
72117;SDS011;59992;47.490;8.736;2023-04-08T18:32:36;9.30;;;5.50;;
72117;SDS011;59992;47.490;8.736;2023-04-08T18:35:27;9.80;;;5.20;;
72117;SDS011;59992;47.490;8.736;2023-04-08T18:38:17;9.70;;;4.90;;
72117;SDS011;59992;47.490;8.736;2023-04-08T18:41:08;10.30;;;5.60;;
72117;SDS011;59992;47.490;8.736;2023-04-08T18:43:59;7.80;;;4.90;;
72117;SDS011;59992;47.490;8.736;2023-04-08T18:46:50;8.80;;;4.70;;
72117;SDS011;59992;47.490;8.736;2023-04-08T18:49:40;7.80;;;4.90;;
72117;SDS011;59992;47.490;8.736;2023-04-08T18:52:30;7.70;;;4.70;;
72117;SDS011;59992;47.490;8.736;2023-04-08T18:55:21;9.40;;;5.10;;
72117;SDS011;59992;47.490;8.736;2023-04-08T18:58:11;8.40;;;4.80;;
72117;SDS011;59992;47.490;8.736;2023-04-08T19:01:01;7.80;;;4.90;;
72117;SDS011;59992;47.490;8.736;2023-04-08T19:03:55;8.20;;;5.10;;
72117;SDS011;59992;47.490;8.736;2023-04-08T19:06:46;11.20;;;6.40;;
72117;SDS011;59992;47.490;8.736;2023-04-08T19:09:37;12.50;;;6.60;;
72117;SDS011;59992;47.490;8.736;2023-04-08T19:12:27;12.80;;;6.40;;